KSPF/SPF METAR and TAF weather

Enter ICAO airport designator
Station Type Date Time Source
KSPF METAR 2019/08/25 02:35 UTC NOAA

KSPF 250235Z AUTO 00000KT 10SM CLR 20/17 A2991 RMK AO2


Station Type Date Time Source
KSPF Decoded METAR 2019/08/25 02:35 UTC NOAA

Station name not available
Aug 24, 2019 - 10:35 PM EDT / 2019.08.25 0235 UTC
Wind: Calm:0
Visibility: 10 mile(s):0
Sky conditions: clear
Temperature: 68 F (20 C)
Dew Point: 62 F (17 C)
Relative Humidity: 82%
Pressure (altimeter): 29.91 in. Hg (1012 hPa)
ob: KSPF 250235Z AUTO 00000KT 10SM CLR 20/17 A2991 RMK AO2
cycle: 2

Station Type Date Time Source
KSPF TAF UTC NOAA

Error!

Example: see airport list